KRWF/RWF METAR and TAF weather

Enter ICAO airport designator
Station Type Date Time Source
KRWF METAR 2022/01/29 13:53 UTC NOAA

KRWF 291353Z AUTO 15006KT 10SM CLR M16/M18 A2991 RMK AO2 SLP153 T11561178


Station Type Date Time Source
KRWF Decoded METAR 2022/01/29 13:53 UTC NOAA

REDWOOD FALLS MUNICIPAL, MN, United States (KRWF) 44-33N 95-05W 311M
Jan 29, 2022 - 08:53 AM EST / 2022.01.29 1353 UTC
Wind: from the SSE (150 degrees) at 7 MPH (6 KT):0
Visibility: 10 mile(s):0
Sky conditions: clear
Temperature: 3.9 F (-15.6 C)
Windchill: -7 F (-22 C):2
Dew Point: -0.0 F (-17.8 C)
Relative Humidity: 83%
Pressure (altimeter): 29.91 in. Hg (1012 hPa)
ob: KRWF 291353Z AUTO 15006KT 10SM CLR M16/M18 A2991 RMK AO2 SLP153 T11561178
cycle: 14

Station Type Date Time Source
KRWF TAF 2022/01/29 12:22 UTC NOAA

TAF KRWF 291120Z 2912/3012 14005KT P6SM SCT200
FM291500 17006KT P6SM SCT250
FM291800 26010KT P6SM FEW250
FM292000 30015G23KT P6SM FEW250
FM300200 31011KT P6SM SCT250

Example: see airport list